This is the latest recevied weather packets stored in our database for station/object W8XLR-2. If no packets are shown the sender has not sent any weather packets the latest 10 day(s).
| Time | Temp. | Humidity | Pressure | Rain* | Wind** | Luminosity | Snow |
|---|---|---|---|---|---|---|---|
| 1778002608 | 20.56° C | 60% | 1010.2 hPa | 0 mm | - | - | - |
| 1778002010 | 21.11° C | 60% | 1010.1 hPa | 0 mm | - | - | - |
| 1778001407 | 21.11° C | 60% | 1010.1 hPa | 0 mm | - | - | - |
| 1778000808 | 21.67° C | 58% | 1010.3 hPa | 0 mm | - | - | - |
| 1778000209 | 21.67° C | 59% | 1010.2 hPa | 0 mm | - | - | - |
| 1777999610 | 21.67° C | 59% | 1010.2 hPa | 0 mm | - | - | - |
| 1777999010 | 21.67° C | 58% | 1010.3 hPa | 0 mm | - | - | - |
| 1777998411 | 21.11° C | 62% | 1009.9 hPa | 0 mm | - | - | - |
| 1777997810 | 21.11° C | 62% | 1009.9 hPa | 0 mm | - | - | - |
| 1777997208 | 21.11° C | 62% | 1010.1 hPa | 0 mm | - | - | - |
| 1777996608 | 20° C | 63% | 1010.4 hPa | 0 mm | - | - | - |
| 1777996010 | 20° C | 63% | 1010.4 hPa | 0 mm | - | - | - |
| 1777995408 | 20° C | 64% | 1010.4 hPa | 0 mm | - | - | - |
| 1777994846 | 20° C | 68% | 1010.4 hPa | 0 mm | - | - | - |
| 1777994807 | 20° C | 68% | 1010.4 hPa | 0 mm | - | - | - |
| 1777994213 | 20° C | 68% | 1010.4 hPa | 0 mm | - | - | - |
| 1777993608 | 18.89° C | 70% | 1010 hPa | 0 mm | - | - | - |
| 1777993014 | 18.33° C | 73% | 1009.8 hPa | 0 mm | - | - | - |
| 1777992408 | 18.33° C | 73% | 1009.8 hPa | 0 mm | - | - | - |
| 1777991848 | 17.22° C | 76% | 1010 hPa | 0 mm | - | - | - |
| 1777991814 | 17.22° C | 76% | 1010 hPa | 0 mm | - | - | - |
| 1777991209 | 16.67° C | 77% | 1009.7 hPa | 0.25 mm | - | - | - |
| 1777990608 | 16.67° C | 77% | 1009.7 hPa | 0.25 mm | - | - | - |
| 1777990008 | 16.67° C | 78% | 1009.9 hPa | 0.25 mm | - | - | - |
| 1777989408 | 16.11° C | 80% | 1010 hPa | 0.25 mm | - | - | - |
* Rain latest hour (hover to see other rain measurements)
** Current wind speed in m/s (hover to see current wind gust speed)